sensor_id;sensor_type;location;lat;lon;timestamp;P1;durP1;ratioP1;P2;durP2;ratioP2
26223;SDS011;14820;48.682;8.890;2022-11-25T00:00:22;17.98;;;8.30;;
26223;SDS011;14820;48.682;8.890;2022-11-25T00:02:48;19.15;;;8.15;;
26223;SDS011;14820;48.682;8.890;2022-11-25T00:05:14;22.77;;;9.40;;
26223;SDS011;14820;48.682;8.890;2022-11-25T00:07:40;20.98;;;8.10;;
26223;SDS011;14820;48.682;8.890;2022-11-25T00:10:05;19.23;;;7.78;;
26223;SDS011;14820;48.682;8.890;2022-11-25T00:12:32;21.40;;;8.07;;
26223;SDS011;14820;48.682;8.890;2022-11-25T00:14:57;21.00;;;8.23;;
26223;SDS011;14820;48.682;8.890;2022-11-25T00:17:23;19.27;;;8.13;;
26223;SDS011;14820;48.682;8.890;2022-11-25T00:19:49;14.73;;;7.13;;
26223;SDS011;14820;48.682;8.890;2022-11-25T00:22:15;17.17;;;7.43;;
26223;SDS011;14820;48.682;8.890;2022-11-25T00:24:40;17.02;;;7.00;;
26223;SDS011;14820;48.682;8.890;2022-11-25T00:27:06;17.42;;;7.38;;
26223;SDS011;14820;48.682;8.890;2022-11-25T00:29:32;15.48;;;7.03;;
26223;SDS011;14820;48.682;8.890;2022-11-25T00:31:57;16.90;;;7.40;;
26223;SDS011;14820;48.682;8.890;2022-11-25T00:34:23;17.52;;;7.38;;
26223;SDS011;14820;48.682;8.890;2022-11-25T00:36:49;17.88;;;8.45;;
26223;SDS011;14820;48.682;8.890;2022-11-25T00:39:15;16.50;;;7.50;;
26223;SDS011;14820;48.682;8.890;2022-11-25T00:41:43;18.83;;;7.82;;
26223;SDS011;14820;48.682;8.890;2022-11-25T00:46:59;13.75;;;6.15;;
26223;SDS011;14820;48.682;8.890;2022-11-25T00:49:26;15.82;;;6.65;;
26223;SDS011;14820;48.682;8.890;2022-11-25T00:51:52;14.02;;;6.13;;
26223;SDS011;14820;48.682;8.890;2022-11-25T00:54:18;17.25;;;6.38;;
26223;SDS011;14820;48.682;8.890;2022-11-25T00:56:44;15.40;;;5.47;;
26223;SDS011;14820;48.682;8.890;2022-11-25T00:59:09;14.15;;;5.72;;
26223;SDS011;14820;48.682;8.890;2022-11-25T01:01:35;12.85;;;5.20;;
26223;SDS011;14820;48.682;8.890;2022-11-25T01:04:02;11.43;;;5.65;;
26223;SDS011;14820;48.682;8.890;2022-11-25T01:06:28;15.18;;;6.40;;
26223;SDS011;14820;48.682;8.890;2022-11-25T01:08:54;15.95;;;5.97;;
26223;SDS011;14820;48.682;8.890;2022-11-25T01:11:20;13.77;;;5.93;;
26223;SDS011;14820;48.682;8.890;2022-11-25T01:13:48;14.45;;;5.78;;
26223;SDS011;14820;48.682;8.890;2022-11-25T01:16:15;16.10;;;5.93;;
26223;SDS011;14820;48.682;8.890;2022-11-25T01:18:42;14.68;;;6.57;;
26223;SDS011;14820;48.682;8.890;2022-11-25T01:21:12;15.90;;;6.57;;
26223;SDS011;14820;48.682;8.890;2022-11-25T01:23:38;14.02;;;6.38;;
26223;SDS011;14820;48.682;8.890;2022-11-25T01:26:06;13.23;;;6.85;;
26223;SDS011;14820;48.682;8.890;2022-11-25T01:28:34;13.02;;;5.82;;
26223;SDS011;14820;48.682;8.890;2022-11-25T01:33:31;13.82;;;6.35;;
26223;SDS011;14820;48.682;8.890;2022-11-25T01:36:00;12.38;;;5.70;;
26223;SDS011;14820;48.682;8.890;2022-11-25T01:38:30;12.85;;;5.70;;
26223;SDS011;14820;48.682;8.890;2022-11-25T01:40:57;10.68;;;5.13;;
26223;SDS011;14820;48.682;8.890;2022-11-25T01:43:23;16.08;;;6.65;;
26223;SDS011;14820;48.682;8.890;2022-11-25T01:45:49;10.32;;;5.00;;
26223;SDS011;14820;48.682;8.890;2022-11-25T01:51:19;16.25;;;5.95;;
26223;SDS011;14820;48.682;8.890;2022-11-25T01:53:47;14.45;;;5.72;;
26223;SDS011;14820;48.682;8.890;2022-11-25T01:56:14;12.65;;;5.82;;
26223;SDS011;14820;48.682;8.890;2022-11-25T01:58:40;8.50;;;5.20;;
26223;SDS011;14820;48.682;8.890;2022-11-25T02:01:07;11.00;;;5.35;;
26223;SDS011;14820;48.682;8.890;2022-11-25T02:03:34;13.90;;;5.43;;
26223;SDS011;14820;48.682;8.890;2022-11-25T02:08:30;11.38;;;5.55;;
26223;SDS011;14820;48.682;8.890;2022-11-25T02:10:57;11.15;;;5.03;;
26223;SDS011;14820;48.682;8.890;2022-11-25T02:13:28;8.88;;;5.18;;
26223;SDS011;14820;48.682;8.890;2022-11-25T02:15:55;9.65;;;5.63;;
26223;SDS011;14820;48.682;8.890;2022-11-25T02:18:21;10.73;;;4.97;;
26223;SDS011;14820;48.682;8.890;2022-11-25T02:20:46;12.23;;;4.93;;
26223;SDS011;14820;48.682;8.890;2022-11-25T02:23:21;8.32;;;4.72;;
26223;SDS011;14820;48.682;8.890;2022-11-25T02:25:50;13.38;;;5.40;;
26223;SDS011;14820;48.682;8.890;2022-11-25T02:28:21;11.90;;;5.50;;
26223;SDS011;14820;48.682;8.890;2022-11-25T02:30:48;11.73;;;5.28;;
26223;SDS011;14820;48.682;8.890;2022-11-25T02:33:15;10.82;;;5.20;;
26223;SDS011;14820;48.682;8.890;2022-11-25T02:38:12;12.43;;;4.85;;
26223;SDS011;14820;48.682;8.890;2022-11-25T02:40:51;9.55;;;5.00;;
26223;SDS011;14820;48.682;8.890;2022-11-25T02:43:17;8.45;;;4.75;;
26223;SDS011;14820;48.682;8.890;2022-11-25T02:48:12;8.15;;;4.43;;
26223;SDS011;14820;48.682;8.890;2022-11-25T02:50:37;9.90;;;4.95;;
26223;SDS011;14820;48.682;8.890;2022-11-25T02:53:03;10.30;;;5.20;;
26223;SDS011;14820;48.682;8.890;2022-11-25T02:55:29;13.13;;;4.85;;
26223;SDS011;14820;48.682;8.890;2022-11-25T02:57:55;9.57;;;4.43;;
26223;SDS011;14820;48.682;8.890;2022-11-25T03:00:20;9.32;;;4.80;;
26223;SDS011;14820;48.682;8.890;2022-11-25T03:02:46;8.80;;;4.68;;
26223;SDS011;14820;48.682;8.890;2022-11-25T03:05:12;8.00;;;4.38;;
26223;SDS011;14820;48.682;8.890;2022-11-25T03:07:38;7.82;;;4.28;;
26223;SDS011;14820;48.682;8.890;2022-11-25T03:10:04;7.32;;;4.10;;
26223;SDS011;14820;48.682;8.890;2022-11-25T03:12:30;6.57;;;3.90;;
26223;SDS011;14820;48.682;8.890;2022-11-25T03:14:56;10.77;;;4.68;;
26223;SDS011;14820;48.682;8.890;2022-11-25T03:17:22;13.45;;;4.28;;
26223;SDS011;14820;48.682;8.890;2022-11-25T03:19:47;7.10;;;4.35;;
26223;SDS011;14820;48.682;8.890;2022-11-25T03:22:13;9.15;;;4.45;;
26223;SDS011;14820;48.682;8.890;2022-11-25T03:24:39;7.28;;;4.22;;
26223;SDS011;14820;48.682;8.890;2022-11-25T03:27:04;8.57;;;4.40;;
26223;SDS011;14820;48.682;8.890;2022-11-25T03:29:30;9.50;;;4.90;;
26223;SDS011;14820;48.682;8.890;2022-11-25T03:31:56;7.68;;;4.57;;
26223;SDS011;14820;48.682;8.890;2022-11-25T03:34:21;18.40;;;4.60;;
26223;SDS011;14820;48.682;8.890;2022-11-25T03:36:47;8.32;;;4.20;;
26223;SDS011;14820;48.682;8.890;2022-11-25T03:39:13;8.43;;;4.47;;
26223;SDS011;14820;48.682;8.890;2022-11-25T03:41:38;8.02;;;4.60;;
26223;SDS011;14820;48.682;8.890;2022-11-25T03:44:04;9.63;;;4.32;;
26223;SDS011;14820;48.682;8.890;2022-11-25T03:46:30;7.60;;;3.83;;
26223;SDS011;14820;48.682;8.890;2022-11-25T03:48:56;8.20;;;3.53;;
26223;SDS011;14820;48.682;8.890;2022-11-25T03:51:21;9.68;;;3.88;;
26223;SDS011;14820;48.682;8.890;2022-11-25T03:53:47;7.07;;;4.03;;
26223;SDS011;14820;48.682;8.890;2022-11-25T03:56:14;7.15;;;3.97;;
26223;SDS011;14820;48.682;8.890;2022-11-25T03:58:39;7.80;;;3.92;;
26223;SDS011;14820;48.682;8.890;2022-11-25T04:01:05;10.25;;;4.82;;
26223;SDS011;14820;48.682;8.890;2022-11-25T04:03:30;7.85;;;4.03;;
26223;SDS011;14820;48.682;8.890;2022-11-25T04:05:56;16.73;;;4.78;;
26223;SDS011;14820;48.682;8.890;2022-11-25T04:08:22;7.53;;;4.20;;
26223;SDS011;14820;48.682;8.890;2022-11-25T04:10:48;6.43;;;3.80;;
26223;SDS011;14820;48.682;8.890;2022-11-25T04:13:14;9.38;;;4.57;;
26223;SDS011;14820;48.682;8.890;2022-11-25T04:15:43;6.95;;;3.97;;
26223;SDS011;14820;48.682;8.890;2022-11-25T04:18:11;8.30;;;4.13;;
26223;SDS011;14820;48.682;8.890;2022-11-25T04:20:37;6.90;;;3.75;;
26223;SDS011;14820;48.682;8.890;2022-11-25T04:23:03;7.30;;;3.83;;
26223;SDS011;14820;48.682;8.890;2022-11-25T04:25:30;7.25;;;4.00;;
26223;SDS011;14820;48.682;8.890;2022-11-25T04:27:56;7.13;;;3.85;;
26223;SDS011;14820;48.682;8.890;2022-11-25T04:30:22;6.22;;;3.97;;
26223;SDS011;14820;48.682;8.890;2022-11-25T04:32:47;5.82;;;3.55;;
26223;SDS011;14820;48.682;8.890;2022-11-25T04:35:13;9.93;;;4.32;;
26223;SDS011;14820;48.682;8.890;2022-11-25T04:37:39;6.18;;;3.70;;
26223;SDS011;14820;48.682;8.890;2022-11-25T04:40:05;7.53;;;3.80;;
26223;SDS011;14820;48.682;8.890;2022-11-25T04:42:31;7.30;;;3.90;;
26223;SDS011;14820;48.682;8.890;2022-11-25T04:44:57;8.57;;;3.95;;
26223;SDS011;14820;48.682;8.890;2022-11-25T04:47:23;8.32;;;3.92;;
26223;SDS011;14820;48.682;8.890;2022-11-25T04:49:49;9.60;;;4.18;;
26223;SDS011;14820;48.682;8.890;2022-11-25T04:52:15;9.27;;;4.95;;
26223;SDS011;14820;48.682;8.890;2022-11-25T04:54:40;8.95;;;4.07;;
26223;SDS011;14820;48.682;8.890;2022-11-25T04:57:07;7.13;;;4.07;;
26223;SDS011;14820;48.682;8.890;2022-11-25T04:59:36;8.32;;;4.60;;
26223;SDS011;14820;48.682;8.890;2022-11-25T05:02:05;7.90;;;4.10;;
26223;SDS011;14820;48.682;8.890;2022-11-25T05:04:37;7.13;;;3.80;;
26223;SDS011;14820;48.682;8.890;2022-11-25T05:07:03;8.48;;;4.05;;
26223;SDS011;14820;48.682;8.890;2022-11-25T05:09:28;6.18;;;3.50;;
26223;SDS011;14820;48.682;8.890;2022-11-25T05:11:54;9.05;;;4.40;;
26223;SDS011;14820;48.682;8.890;2022-11-25T05:14:19;8.35;;;4.18;;
26223;SDS011;14820;48.682;8.890;2022-11-25T05:16:46;10.95;;;4.75;;
26223;SDS011;14820;48.682;8.890;2022-11-25T05:19:12;9.38;;;5.07;;
26223;SDS011;14820;48.682;8.890;2022-11-25T05:21:37;10.45;;;4.78;;
26223;SDS011;14820;48.682;8.890;2022-11-25T05:24:03;7.47;;;4.90;;
26223;SDS011;14820;48.682;8.890;2022-11-25T05:26:29;10.95;;;4.95;;
26223;SDS011;14820;48.682;8.890;2022-11-25T05:28:54;11.52;;;5.22;;
26223;SDS011;14820;48.682;8.890;2022-11-25T05:31:21;11.90;;;5.50;;
26223;SDS011;14820;48.682;8.890;2022-11-25T05:33:46;11.45;;;5.55;;
26223;SDS011;14820;48.682;8.890;2022-11-25T05:36:12;13.23;;;5.95;;
26223;SDS011;14820;48.682;8.890;2022-11-25T05:38:37;15.75;;;6.07;;
26223;SDS011;14820;48.682;8.890;2022-11-25T05:41:04;12.13;;;6.55;;
26223;SDS011;14820;48.682;8.890;2022-11-25T05:43:31;13.13;;;6.00;;
26223;SDS011;14820;48.682;8.890;2022-11-25T05:45:57;10.70;;;6.20;;
26223;SDS011;14820;48.682;8.890;2022-11-25T05:48:23;16.92;;;6.40;;
26223;SDS011;14820;48.682;8.890;2022-11-25T05:50:49;9.10;;;5.72;;
26223;SDS011;14820;48.682;8.890;2022-11-25T05:53:14;12.30;;;5.93;;
26223;SDS011;14820;48.682;8.890;2022-11-25T05:55:41;17.30;;;6.25;;
26223;SDS011;14820;48.682;8.890;2022-11-25T05:58:08;16.13;;;7.68;;
26223;SDS011;14820;48.682;8.890;2022-11-25T06:00:33;14.20;;;8.15;;
26223;SDS011;14820;48.682;8.890;2022-11-25T06:02:59;13.82;;;7.00;;
26223;SDS011;14820;48.682;8.890;2022-11-25T06:05:25;14.68;;;7.65;;
26223;SDS011;14820;48.682;8.890;2022-11-25T06:07:51;13.68;;;6.40;;
26223;SDS011;14820;48.682;8.890;2022-11-25T06:10:17;21.42;;;12.20;;
26223;SDS011;14820;48.682;8.890;2022-11-25T06:12:43;15.40;;;9.00;;
26223;SDS011;14820;48.682;8.890;2022-11-25T06:15:09;14.30;;;8.23;;
26223;SDS011;14820;48.682;8.890;2022-11-25T06:17:36;11.98;;;7.68;;
26223;SDS011;14820;48.682;8.890;2022-11-25T06:20:02;12.57;;;7.03;;
26223;SDS011;14820;48.682;8.890;2022-11-25T06:22:28;11.23;;;7.10;;
26223;SDS011;14820;48.682;8.890;2022-11-25T06:24:54;10.82;;;5.97;;
26223;SDS011;14820;48.682;8.890;2022-11-25T06:27:19;15.98;;;5.78;;
26223;SDS011;14820;48.682;8.890;2022-11-25T06:29:45;11.27;;;6.07;;
26223;SDS011;14820;48.682;8.890;2022-11-25T06:32:11;12.23;;;6.25;;
26223;SDS011;14820;48.682;8.890;2022-11-25T06:34:37;16.27;;;7.13;;
26223;SDS011;14820;48.682;8.890;2022-11-25T06:37:06;15.38;;;7.45;;
26223;SDS011;14820;48.682;8.890;2022-11-25T06:39:32;13.85;;;7.68;;
26223;SDS011;14820;48.682;8.890;2022-11-25T06:41:58;19.45;;;8.35;;
26223;SDS011;14820;48.682;8.890;2022-11-25T06:44:24;13.93;;;7.07;;
26223;SDS011;14820;48.682;8.890;2022-11-25T06:46:49;15.30;;;7.43;;
26223;SDS011;14820;48.682;8.890;2022-11-25T06:49:15;14.52;;;7.93;;
26223;SDS011;14820;48.682;8.890;2022-11-25T06:51:41;16.85;;;8.45;;
26223;SDS011;14820;48.682;8.890;2022-11-25T06:54:06;14.93;;;8.40;;
26223;SDS011;14820;48.682;8.890;2022-11-25T06:56:32;24.85;;;14.50;;
26223;SDS011;14820;48.682;8.890;2022-11-25T06:58:58;26.15;;;13.90;;
26223;SDS011;14820;48.682;8.890;2022-11-25T07:01:27;27.67;;;14.57;;
26223;SDS011;14820;48.682;8.890;2022-11-25T07:03:54;17.77;;;9.35;;
26223;SDS011;14820;48.682;8.890;2022-11-25T07:06:29;13.07;;;8.02;;
26223;SDS011;14820;48.682;8.890;2022-11-25T07:08:57;44.83;;;20.83;;
26223;SDS011;14820;48.682;8.890;2022-11-25T07:11:26;58.38;;;27.25;;
26223;SDS011;14820;48.682;8.890;2022-11-25T07:13:58;48.30;;;25.52;;
26223;SDS011;14820;48.682;8.890;2022-11-25T07:16:26;58.25;;;30.27;;
26223;SDS011;14820;48.682;8.890;2022-11-25T07:18:52;22.83;;;13.80;;
26223;SDS011;14820;48.682;8.890;2022-11-25T07:21:19;23.45;;;12.20;;
26223;SDS011;14820;48.682;8.890;2022-11-25T07:23:46;19.50;;;10.55;;
26223;SDS011;14820;48.682;8.890;2022-11-25T07:26:14;22.23;;;11.93;;
26223;SDS011;14820;48.682;8.890;2022-11-25T07:28:41;17.20;;;9.95;;
26223;SDS011;14820;48.682;8.890;2022-11-25T07:31:08;14.93;;;8.05;;
26223;SDS011;14820;48.682;8.890;2022-11-25T07:33:39;28.73;;;15.38;;
26223;SDS011;14820;48.682;8.890;2022-11-25T07:36:06;23.17;;;11.63;;
26223;SDS011;14820;48.682;8.890;2022-11-25T07:38:33;20.38;;;10.25;;
26223;SDS011;14820;48.682;8.890;2022-11-25T07:41:06;17.80;;;9.80;;
26223;SDS011;14820;48.682;8.890;2022-11-25T07:43:35;15.95;;;10.65;;
26223;SDS011;14820;48.682;8.890;2022-11-25T07:46:15;18.13;;;11.18;;
26223;SDS011;14820;48.682;8.890;2022-11-25T07:48:40;12.18;;;6.43;;
26223;SDS011;14820;48.682;8.890;2022-11-25T07:51:17;8.43;;;4.55;;
26223;SDS011;14820;48.682;8.890;2022-11-25T07:53:44;8.07;;;4.63;;
26223;SDS011;14820;48.682;8.890;2022-11-25T07:56:11;8.60;;;4.72;;
26223;SDS011;14820;48.682;8.890;2022-11-25T07:58:37;10.02;;;5.70;;
26223;SDS011;14820;48.682;8.890;2022-11-25T08:01:04;9.82;;;5.60;;
26223;SDS011;14820;48.682;8.890;2022-11-25T08:03:31;15.52;;;8.60;;
26223;SDS011;14820;48.682;8.890;2022-11-25T08:05:59;11.40;;;6.53;;
26223;SDS011;14820;48.682;8.890;2022-11-25T08:08:26;9.98;;;6.07;;
26223;SDS011;14820;48.682;8.890;2022-11-25T08:10:51;8.88;;;6.20;;
26223;SDS011;14820;48.682;8.890;2022-11-25T08:13:17;13.35;;;5.60;;
26223;SDS011;14820;48.682;8.890;2022-11-25T08:15:43;12.77;;;7.90;;
26223;SDS011;14820;48.682;8.890;2022-11-25T08:18:08;14.23;;;9.07;;
26223;SDS011;14820;48.682;8.890;2022-11-25T08:20:34;23.65;;;10.43;;
26223;SDS011;14820;48.682;8.890;2022-11-25T08:23:00;26.75;;;13.73;;
26223;SDS011;14820;48.682;8.890;2022-11-25T08:25:25;20.17;;;9.48;;
26223;SDS011;14820;48.682;8.890;2022-11-25T08:27:53;15.85;;;6.45;;
26223;SDS011;14820;48.682;8.890;2022-11-25T08:30:19;12.75;;;6.53;;
26223;SDS011;14820;48.682;8.890;2022-11-25T08:32:48;19.10;;;9.57;;
26223;SDS011;14820;48.682;8.890;2022-11-25T08:35:14;23.42;;;10.93;;
26223;SDS011;14820;48.682;8.890;2022-11-25T08:37:39;15.88;;;8.60;;
26223;SDS011;14820;48.682;8.890;2022-11-25T08:40:05;12.13;;;6.95;;
26223;SDS011;14820;48.682;8.890;2022-11-25T08:42:31;16.77;;;7.07;;
26223;SDS011;14820;48.682;8.890;2022-11-25T08:44:58;14.02;;;7.95;;
26223;SDS011;14820;48.682;8.890;2022-11-25T08:47:24;22.35;;;12.98;;
26223;SDS011;14820;48.682;8.890;2022-11-25T08:49:50;12.05;;;7.50;;
26223;SDS011;14820;48.682;8.890;2022-11-25T08:52:17;17.75;;;7.35;;
26223;SDS011;14820;48.682;8.890;2022-11-25T08:54:42;12.32;;;6.20;;
26223;SDS011;14820;48.682;8.890;2022-11-25T08:57:08;13.00;;;6.57;;
26223;SDS011;14820;48.682;8.890;2022-11-25T08:59:34;13.77;;;6.55;;
26223;SDS011;14820;48.682;8.890;2022-11-25T09:02:00;29.92;;;15.60;;
26223;SDS011;14820;48.682;8.890;2022-11-25T09:04:26;27.00;;;13.50;;
26223;SDS011;14820;48.682;8.890;2022-11-25T09:06:51;13.40;;;7.63;;
26223;SDS011;14820;48.682;8.890;2022-11-25T09:09:17;16.02;;;6.50;;
26223;SDS011;14820;48.682;8.890;2022-11-25T09:11:43;9.52;;;5.63;;
26223;SDS011;14820;48.682;8.890;2022-11-25T09:14:08;11.55;;;5.40;;
26223;SDS011;14820;48.682;8.890;2022-11-25T09:16:34;11.77;;;6.20;;
26223;SDS011;14820;48.682;8.890;2022-11-25T09:19:00;7.85;;;4.60;;
26223;SDS011;14820;48.682;8.890;2022-11-25T09:21:25;10.50;;;4.90;;
26223;SDS011;14820;48.682;8.890;2022-11-25T09:23:52;12.45;;;4.72;;
26223;SDS011;14820;48.682;8.890;2022-11-25T09:26:25;7.07;;;4.20;;
26223;SDS011;14820;48.682;8.890;2022-11-25T09:28:54;15.75;;;7.13;;
26223;SDS011;14820;48.682;8.890;2022-11-25T09:31:20;15.63;;;6.20;;
26223;SDS011;14820;48.682;8.890;2022-11-25T09:33:46;19.17;;;7.43;;
26223;SDS011;14820;48.682;8.890;2022-11-25T09:36:13;30.67;;;10.30;;
26223;SDS011;14820;48.682;8.890;2022-11-25T09:38:40;33.60;;;11.52;;
26223;SDS011;14820;48.682;8.890;2022-11-25T09:47:26;24.08;;;10.10;;
26223;SDS011;14820;48.682;8.890;2022-11-25T09:52:52;14.07;;;8.10;;
26223;SDS011;14820;48.682;8.890;2022-11-25T09:55:32;11.63;;;6.85;;
26223;SDS011;14820;48.682;8.890;2022-11-25T09:58:23;15.88;;;7.57;;
26223;SDS011;14820;48.682;8.890;2022-11-25T10:00:56;11.48;;;6.25;;
26223;SDS011;14820;48.682;8.890;2022-11-25T10:08:47;12.65;;;6.68;;
26223;SDS011;14820;48.682;8.890;2022-11-25T10:22:01;11.48;;;4.32;;
26223;SDS011;14820;48.682;8.890;2022-11-25T10:24:45;11.75;;;3.90;;
26223;SDS011;14820;48.682;8.890;2022-11-25T10:27:14;9.38;;;4.13;;
26223;SDS011;14820;48.682;8.890;2022-11-25T10:29:43;5.88;;;3.40;;
26223;SDS011;14820;48.682;8.890;2022-11-25T10:32:22;5.80;;;3.65;;
26223;SDS011;14820;48.682;8.890;2022-11-25T10:34:51;11.70;;;4.05;;
26223;SDS011;14820;48.682;8.890;2022-11-25T10:37:27;10.23;;;5.03;;
26223;SDS011;14820;48.682;8.890;2022-11-25T10:39:55;11.13;;;4.90;;
26223;SDS011;14820;48.682;8.890;2022-11-25T10:42:22;9.88;;;4.13;;
26223;SDS011;14820;48.682;8.890;2022-11-25T10:44:50;9.50;;;3.40;;
26223;SDS011;14820;48.682;8.890;2022-11-25T10:50:43;8.48;;;2.83;;
26223;SDS011;14820;48.682;8.890;2022-11-25T10:53:16;10.82;;;3.00;;
26223;SDS011;14820;48.682;8.890;2022-11-25T10:55:56;9.32;;;2.88;;
26223;SDS011;14820;48.682;8.890;2022-11-25T11:01:03;9.95;;;3.28;;
26223;SDS011;14820;48.682;8.890;2022-11-25T11:03:46;9.25;;;3.03;;
26223;SDS011;14820;48.682;8.890;2022-11-25T11:06:30;8.35;;;3.70;;
26223;SDS011;14820;48.682;8.890;2022-11-25T11:09:00;8.40;;;3.40;;
26223;SDS011;14820;48.682;8.890;2022-11-25T11:11:26;10.13;;;4.65;;
26223;SDS011;14820;48.682;8.890;2022-11-25T11:13:59;8.77;;;4.22;;
26223;SDS011;14820;48.682;8.890;2022-11-25T11:16:38;14.05;;;4.57;;
26223;SDS011;14820;48.682;8.890;2022-11-25T11:19:05;10.80;;;4.68;;
26223;SDS011;14820;48.682;8.890;2022-11-25T11:21:49;12.38;;;6.38;;
26223;SDS011;14820;48.682;8.890;2022-11-25T11:24:23;16.08;;;7.00;;
26223;SDS011;14820;48.682;8.890;2022-11-25T11:27:00;8.30;;;4.90;;
26223;SDS011;14820;48.682;8.890;2022-11-25T11:29:31;12.25;;;4.70;;
26223;SDS011;14820;48.682;8.890;2022-11-25T11:31:58;9.57;;;5.35;;
26223;SDS011;14820;48.682;8.890;2022-11-25T11:37:37;8.07;;;4.28;;
26223;SDS011;14820;48.682;8.890;2022-11-25T11:40:22;9.85;;;4.30;;
26223;SDS011;14820;48.682;8.890;2022-11-25T11:43:05;9.00;;;4.40;;
26223;SDS011;14820;48.682;8.890;2022-11-25T11:51:06;13.27;;;5.03;;
26223;SDS011;14820;48.682;8.890;2022-11-25T11:53:52;7.90;;;4.22;;
26223;SDS011;14820;48.682;8.890;2022-11-25T11:56:34;12.60;;;5.75;;
26223;SDS011;14820;48.682;8.890;2022-11-25T12:07:17;10.98;;;4.43;;
26223;SDS011;14820;48.682;8.890;2022-11-25T12:09:52;10.20;;;4.70;;
26223;SDS011;14820;48.682;8.890;2022-11-25T12:12:23;10.40;;;3.55;;
26223;SDS011;14820;48.682;8.890;2022-11-25T12:15:03;5.82;;;2.83;;
26223;SDS011;14820;48.682;8.890;2022-11-25T12:17:41;6.00;;;2.85;;
26223;SDS011;14820;48.682;8.890;2022-11-25T12:20:16;6.38;;;3.33;;
26223;SDS011;14820;48.682;8.890;2022-11-25T12:23:15;10.63;;;4.03;;
26223;SDS011;14820;48.682;8.890;2022-11-25T12:25:48;9.90;;;4.32;;
26223;SDS011;14820;48.682;8.890;2022-11-25T12:28:28;8.95;;;4.38;;
26223;SDS011;14820;48.682;8.890;2022-11-25T12:31:07;8.73;;;4.82;;
26223;SDS011;14820;48.682;8.890;2022-11-25T12:33:42;9.75;;;4.93;;
26223;SDS011;14820;48.682;8.890;2022-11-25T12:36:26;9.15;;;4.40;;
26223;SDS011;14820;48.682;8.890;2022-11-25T12:47:16;8.32;;;3.78;;
26223;SDS011;14820;48.682;8.890;2022-11-25T12:49:42;9.63;;;3.33;;
26223;SDS011;14820;48.682;8.890;2022-11-25T13:08:53;24.98;;;12.38;;
26223;SDS011;14820;48.682;8.890;2022-11-25T13:14:22;7.68;;;2.92;;
26223;SDS011;14820;48.682;8.890;2022-11-25T13:16:55;6.57;;;2.63;;
26223;SDS011;14820;48.682;8.890;2022-11-25T13:19:22;7.47;;;3.20;;
26223;SDS011;14820;48.682;8.890;2022-11-25T13:22:01;7.45;;;2.50;;
26223;SDS011;14820;48.682;8.890;2022-11-25T13:24:33;7.93;;;2.85;;
26223;SDS011;14820;48.682;8.890;2022-11-25T13:27:04;6.13;;;2.53;;
26223;SDS011;14820;48.682;8.890;2022-11-25T13:29:52;9.13;;;2.95;;
26223;SDS011;14820;48.682;8.890;2022-11-25T13:37:49;9.88;;;2.75;;
26223;SDS011;14820;48.682;8.890;2022-11-25T13:43:03;6.63;;;2.22;;
26223;SDS011;14820;48.682;8.890;2022-11-25T13:45:43;7.10;;;2.30;;
26223;SDS011;14820;48.682;8.890;2022-11-25T13:48:19;10.73;;;4.00;;
26223;SDS011;14820;48.682;8.890;2022-11-25T13:51:15;9.07;;;3.30;;
26223;SDS011;14820;48.682;8.890;2022-11-25T13:53:52;11.45;;;3.40;;
26223;SDS011;14820;48.682;8.890;2022-11-25T13:56:24;8.20;;;3.55;;
26223;SDS011;14820;48.682;8.890;2022-11-25T14:01:34;9.95;;;3.10;;
26223;SDS011;14820;48.682;8.890;2022-11-25T14:04:06;9.48;;;3.05;;
26223;SDS011;14820;48.682;8.890;2022-11-25T14:14:43;19.08;;;3.90;;
26223;SDS011;14820;48.682;8.890;2022-11-25T14:17:52;17.63;;;3.72;;
26223;SDS011;14820;48.682;8.890;2022-11-25T14:20:42;8.65;;;2.30;;
26223;SDS011;14820;48.682;8.890;2022-11-25T14:26:09;8.52;;;2.13;;
26223;SDS011;14820;48.682;8.890;2022-11-25T14:28:42;11.52;;;2.70;;
26223;SDS011;14820;48.682;8.890;2022-11-25T14:31:17;17.55;;;3.90;;
26223;SDS011;14820;48.682;8.890;2022-11-25T14:33:57;11.50;;;2.67;;
26223;SDS011;14820;48.682;8.890;2022-11-25T14:36:30;11.48;;;2.97;;
26223;SDS011;14820;48.682;8.890;2022-11-25T14:39:02;13.93;;;3.03;;
26223;SDS011;14820;48.682;8.890;2022-11-25T14:41:35;16.60;;;3.55;;
26223;SDS011;14820;48.682;8.890;2022-11-25T14:44:08;12.35;;;2.92;;
26223;SDS011;14820;48.682;8.890;2022-11-25T14:46:52;11.20;;;2.75;;
26223;SDS011;14820;48.682;8.890;2022-11-25T14:49:19;8.52;;;2.20;;
26223;SDS011;14820;48.682;8.890;2022-11-25T14:51:49;11.68;;;2.70;;
26223;SDS011;14820;48.682;8.890;2022-11-25T14:54:18;8.90;;;3.35;;
26223;SDS011;14820;48.682;8.890;2022-11-25T14:56:45;13.50;;;4.80;;
26223;SDS011;14820;48.682;8.890;2022-11-25T14:59:11;18.30;;;4.88;;
26223;SDS011;14820;48.682;8.890;2022-11-25T15:01:38;12.80;;;3.75;;
26223;SDS011;14820;48.682;8.890;2022-11-25T15:04:16;7.68;;;2.80;;
26223;SDS011;14820;48.682;8.890;2022-11-25T15:06:55;8.32;;;2.75;;
26223;SDS011;14820;48.682;8.890;2022-11-25T15:12:05;10.32;;;3.88;;
26223;SDS011;14820;48.682;8.890;2022-11-25T15:14:41;10.85;;;4.00;;
26223;SDS011;14820;48.682;8.890;2022-11-25T15:17:28;9.68;;;4.60;;
26223;SDS011;14820;48.682;8.890;2022-11-25T15:19:56;16.40;;;6.18;;
26223;SDS011;14820;48.682;8.890;2022-11-25T15:22:25;21.00;;;8.68;;
26223;SDS011;14820;48.682;8.890;2022-11-25T15:24:52;30.60;;;15.50;;
26223;SDS011;14820;48.682;8.890;2022-11-25T15:27:20;36.17;;;14.32;;
26223;SDS011;14820;48.682;8.890;2022-11-25T15:29:51;29.38;;;13.02;;
26223;SDS011;14820;48.682;8.890;2022-11-25T15:32:23;31.83;;;10.93;;
26223;SDS011;14820;48.682;8.890;2022-11-25T15:34:52;36.75;;;12.02;;
26223;SDS011;14820;48.682;8.890;2022-11-25T15:37:20;36.55;;;11.63;;
26223;SDS011;14820;48.682;8.890;2022-11-25T15:39:47;42.95;;;9.23;;
26223;SDS011;14820;48.682;8.890;2022-11-25T15:42:24;28.77;;;7.05;;
26223;SDS011;14820;48.682;8.890;2022-11-25T15:44:53;24.85;;;5.93;;
26223;SDS011;14820;48.682;8.890;2022-11-25T15:47:24;28.85;;;12.20;;
26223;SDS011;14820;48.682;8.890;2022-11-25T15:52:21;44.28;;;19.23;;
26223;SDS011;14820;48.682;8.890;2022-11-25T15:54:48;39.70;;;18.05;;
26223;SDS011;14820;48.682;8.890;2022-11-25T15:57:17;28.13;;;10.50;;
26223;SDS011;14820;48.682;8.890;2022-11-25T16:05:17;13.52;;;4.10;;
26223;SDS011;14820;48.682;8.890;2022-11-25T16:15:42;24.73;;;10.38;;
26223;SDS011;14820;48.682;8.890;2022-11-25T16:29:17;45.35;;;25.13;;
26223;SDS011;14820;48.682;8.890;2022-11-25T16:31:46;19.42;;;10.52;;
26223;SDS011;14820;48.682;8.890;2022-11-25T16:34:15;16.73;;;5.95;;
26223;SDS011;14820;48.682;8.890;2022-11-25T16:36:43;25.83;;;8.27;;
26223;SDS011;14820;48.682;8.890;2022-11-25T16:39:09;28.85;;;10.00;;
26223;SDS011;14820;48.682;8.890;2022-11-25T16:41:35;29.65;;;12.02;;
26223;SDS011;14820;48.682;8.890;2022-11-25T16:44:03;28.75;;;12.13;;
26223;SDS011;14820;48.682;8.890;2022-11-25T16:46:29;36.78;;;12.95;;
26223;SDS011;14820;48.682;8.890;2022-11-25T16:48:55;34.90;;;14.23;;
26223;SDS011;14820;48.682;8.890;2022-11-25T16:51:21;76.03;;;26.20;;
26223;SDS011;14820;48.682;8.890;2022-11-25T16:53:48;29.30;;;13.32;;
26223;SDS011;14820;48.682;8.890;2022-11-25T16:56:15;32.60;;;12.30;;
26223;SDS011;14820;48.682;8.890;2022-11-25T16:58:46;35.83;;;13.75;;
26223;SDS011;14820;48.682;8.890;2022-11-25T17:01:13;29.52;;;11.18;;
26223;SDS011;14820;48.682;8.890;2022-11-25T17:03:40;25.00;;;9.65;;
26223;SDS011;14820;48.682;8.890;2022-11-25T17:06:11;16.83;;;8.10;;
26223;SDS011;14820;48.682;8.890;2022-11-25T17:08:38;24.77;;;8.68;;
26223;SDS011;14820;48.682;8.890;2022-11-25T17:11:07;28.48;;;11.27;;